createdAt,value
2017-09-09T00:00:16.605Z,0
2017-09-09T00:01:18.999Z,0
2017-09-09T00:02:21.391Z,0
2017-09-09T00:03:23.786Z,0
2017-09-09T00:04:26.177Z,0
2017-09-09T00:05:28.576Z,0
2017-09-09T00:06:30.962Z,0
2017-09-09T00:07:33.366Z,0
2017-09-09T00:08:35.759Z,0
2017-09-09T00:09:38.150Z,0
2017-09-09T00:10:40.544Z,0
2017-09-09T00:11:43.277Z,0
2017-09-09T00:12:45.671Z,0
2017-09-09T00:13:48.069Z,0
2017-09-09T00:14:50.456Z,0
2017-09-09T00:15:52.854Z,0
2017-09-09T00:16:55.251Z,0
2017-09-09T00:17:57.648Z,0
2017-09-09T00:19:00.046Z,0
2017-09-09T00:20:02.792Z,0
2017-09-09T00:21:05.188Z,0
2017-09-09T00:22:07.576Z,0
2017-09-09T00:23:09.974Z,0
2017-09-09T00:24:12.693Z,0
2017-09-09T00:25:15.092Z,0
2017-09-09T00:26:17.497Z,0
2017-09-09T00:27:19.886Z,0
2017-09-09T00:28:22.279Z,0
2017-09-09T00:29:25.017Z,0
2017-09-09T00:30:27.415Z,0
2017-09-09T00:31:29.818Z,0
2017-09-09T00:32:32.211Z,0
2017-09-09T00:33:34.594Z,0
2017-09-09T00:34:36.993Z,0
2017-09-09T00:35:39.399Z,0
2017-09-09T00:36:41.802Z,0
2017-09-09T00:37:44.196Z,0
2017-09-09T00:38:46.591Z,0
2017-09-09T00:39:48.986Z,0
2017-09-09T00:40:51.372Z,0
2017-09-09T00:41:53.771Z,0
2017-09-09T00:42:56.501Z,0
2017-09-09T00:43:58.891Z,0
2017-09-09T00:45:01.286Z,0
2017-09-09T00:46:03.676Z,0
2017-09-09T00:47:06.069Z,0
2017-09-09T00:48:08.476Z,0
2017-09-09T00:49:10.859Z,0
2017-09-09T00:50:13.611Z,0
2017-09-09T00:51:16.000Z,0
2017-09-09T00:52:18.740Z,0
2017-09-09T00:53:21.126Z,0
2017-09-09T00:54:23.525Z,0
2017-09-09T00:55:25.920Z,0
2017-09-09T00:56:28.675Z,0
2017-09-09T00:57:31.068Z,0
2017-09-09T00:58:33.457Z,0
2017-09-09T00:59:35.849Z,0
2017-09-09T01:00:38.249Z,0
2017-09-09T01:01:40.642Z,0
2017-09-09T01:02:43.036Z,0
2017-09-09T01:03:45.776Z,0
2017-09-09T01:04:48.162Z,0
2017-09-09T01:05:50.558Z,0
2017-09-09T01:06:52.948Z,0
2017-09-09T01:07:55.341Z,0
2017-09-09T01:08:57.737Z,0
2017-09-09T01:10:00.132Z,0
2017-09-09T01:11:02.522Z,0
2017-09-09T01:12:05.267Z,0
2017-09-09T01:13:07.658Z,0
2017-09-09T01:14:10.046Z,0
2017-09-09T01:15:12.447Z,0
2017-09-09T01:16:14.838Z,0
2017-09-09T01:17:17.241Z,0
2017-09-09T01:18:19.632Z,0
2017-09-09T01:19:22.026Z,0
2017-09-09T01:20:24.756Z,0
2017-09-09T01:21:27.493Z,0
2017-09-09T01:22:29.882Z,0
2017-09-09T01:23:32.620Z,0
2017-09-09T01:24:35.009Z,0
2017-09-09T01:25:37.407Z,0
2017-09-09T01:26:39.808Z,0
2017-09-09T01:27:42.205Z,0
2017-09-09T01:28:44.599Z,0
2017-09-09T01:29:46.998Z,0
2017-09-09T01:30:49.386Z,0
2017-09-09T01:31:51.783Z,0
2017-09-09T01:32:54.176Z,0
2017-09-09T01:33:56.569Z,0
2017-09-09T01:34:59.308Z,0
2017-09-09T01:36:01.694Z,0
2017-09-09T01:37:04.092Z,0
2017-09-09T01:38:06.494Z,0
2017-09-09T01:39:08.884Z,0
2017-09-09T01:40:11.278Z,0
2017-09-09T01:41:13.675Z,0
2017-09-09T01:42:16.069Z,0
2017-09-09T01:43:18.465Z,0
2017-09-09T01:44:20.857Z,0
2017-09-09T01:45:23.236Z,0
2017-09-09T01:46:25.640Z,0
2017-09-09T01:47:28.031Z,0
2017-09-09T01:48:30.421Z,0
2017-09-09T01:49:32.824Z,0
2017-09-09T01:50:35.217Z,0
2017-09-09T01:51:37.613Z,0
2017-09-09T01:52:40.003Z,0
2017-09-09T01:53:42.401Z,0
2017-09-09T01:54:44.802Z,0
2017-09-09T01:55:47.200Z,0
2017-09-09T01:56:49.586Z,0
2017-09-09T01:57:51.983Z,0
2017-09-09T01:58:54.381Z,0
2017-09-09T01:59:56.765Z,0
2017-09-09T02:00:59.161Z,0
2017-09-09T02:02:01.561Z,0
2017-09-09T02:03:03.945Z,0
2017-09-09T02:04:06.348Z,0
2017-09-09T02:05:08.738Z,0
2017-09-09T02:06:11.137Z,0
2017-09-09T02:07:13.527Z,0
2017-09-09T02:08:15.926Z,0
2017-09-09T02:09:18.317Z,0
2017-09-09T02:10:20.713Z,0
2017-09-09T02:11:23.100Z,0
2017-09-09T02:12:25.499Z,0
2017-09-09T02:13:27.891Z,0
2017-09-09T02:14:30.286Z,0
2017-09-09T02:15:32.678Z,0
2017-09-09T02:16:35.071Z,0
2017-09-09T02:17:37.460Z,0
2017-09-09T02:18:39.863Z,0
2017-09-09T02:19:42.256Z,0
2017-09-09T02:20:45.336Z,0
2017-09-09T02:21:47.729Z,0
2017-09-09T02:22:50.130Z,0
2017-09-09T02:23:52.524Z,0
2017-09-09T02:24:54.917Z,0
2017-09-09T02:25:57.306Z,0
2017-09-09T02:26:59.701Z,0
2017-09-09T02:28:02.439Z,0
2017-09-09T02:29:04.838Z,0
2017-09-09T02:30:07.219Z,0
2017-09-09T02:31:09.620Z,0
2017-09-09T02:32:12.016Z,0
2017-09-09T02:33:14.406Z,0
2017-09-09T02:34:16.796Z,0
2017-09-09T02:35:19.198Z,0
2017-09-09T02:36:21.585Z,0
2017-09-09T02:37:23.973Z,0
2017-09-09T02:38:26.369Z,0
2017-09-09T02:39:28.759Z,0
2017-09-09T02:40:31.159Z,0
2017-09-09T02:41:33.558Z,0
2017-09-09T02:42:35.944Z,0
2017-09-09T02:43:38.341Z,0
2017-09-09T02:44:40.742Z,0
2017-09-09T02:45:43.130Z,0
2017-09-09T02:46:45.525Z,0
2017-09-09T02:47:47.917Z,0
2017-09-09T02:48:50.317Z,0
2017-09-09T02:49:52.716Z,0
2017-09-09T02:50:55.112Z,0
2017-09-09T02:51:57.506Z,0
2017-09-09T02:52:59.900Z,0
2017-09-09T02:54:02.300Z,0
2017-09-09T02:55:04.695Z,0
2017-09-09T02:56:07.095Z,0
2017-09-09T02:57:09.485Z,0
2017-09-09T02:58:11.879Z,0
2017-09-09T02:59:14.272Z,0
2017-09-09T03:00:16.670Z,0
2017-09-09T03:01:19.059Z,0
2017-09-09T03:02:21.808Z,0
2017-09-09T03:03:24.212Z,0
2017-09-09T03:04:26.603Z,0
2017-09-09T03:05:28.997Z,0
2017-09-09T03:06:31.389Z,0
2017-09-09T03:07:33.784Z,0
2017-09-09T03:08:36.176Z,0
2017-09-09T03:09:38.580Z,0
2017-09-09T03:10:40.969Z,0
2017-09-09T03:11:43.365Z,0
2017-09-09T03:12:45.765Z,0
2017-09-09T03:13:48.157Z,0
2017-09-09T03:14:50.545Z,0
2017-09-09T03:15:52.938Z,0
2017-09-09T03:16:55.332Z,0
2017-09-09T03:17:57.736Z,0
2017-09-09T03:19:00.131Z,0
2017-09-09T03:20:02.516Z,0
2017-09-09T03:21:05.273Z,0
2017-09-09T03:22:07.680Z,0
2017-09-09T03:23:10.074Z,0
2017-09-09T03:24:12.468Z,0
2017-09-09T03:25:15.198Z,0
2017-09-09T03:26:17.589Z,0
2017-09-09T03:27:19.997Z,0
2017-09-09T03:28:22.389Z,0
2017-09-09T03:29:24.769Z,0
2017-09-09T03:30:27.164Z,0
2017-09-09T03:31:29.565Z,0
2017-09-09T03:32:31.955Z,0
2017-09-09T03:33:34.706Z,0
2017-09-09T03:34:37.115Z,0
2017-09-09T03:35:39.504Z,0
2017-09-09T03:36:41.900Z,0
2017-09-09T03:37:44.296Z,0
2017-09-09T03:38:46.688Z,0
2017-09-09T03:39:49.081Z,0
2017-09-09T03:40:51.477Z,0
2017-09-09T03:41:53.868Z,0
2017-09-09T03:42:56.270Z,0
2017-09-09T03:43:58.667Z,0
2017-09-09T03:45:01.066Z,0
2017-09-09T03:46:03.461Z,0
2017-09-09T03:47:05.859Z,0
2017-09-09T03:48:08.254Z,0
2017-09-09T03:49:10.650Z,0
2017-09-09T03:50:13.042Z,0
2017-09-09T03:51:15.433Z,0
2017-09-09T03:52:17.823Z,0
2017-09-09T03:53:20.577Z,0
2017-09-09T03:54:23.301Z,0
2017-09-09T03:55:25.694Z,0
2017-09-09T03:56:28.092Z,0
2017-09-09T03:57:30.480Z,0
2017-09-09T03:58:32.868Z,0
2017-09-09T03:59:35.272Z,0
2017-09-09T04:00:37.658Z,0
2017-09-09T04:01:40.056Z,0
2017-09-09T04:02:42.797Z,0
2017-09-09T04:03:45.188Z,0
2017-09-09T04:04:47.584Z,0
2017-09-09T04:05:49.975Z,0
2017-09-09T04:06:52.371Z,0
2017-09-09T04:07:54.771Z,0
2017-09-09T04:08:57.171Z,0
2017-09-09T04:09:59.558Z,0
2017-09-09T04:11:01.956Z,0
2017-09-09T04:12:04.359Z,0
2017-09-09T04:13:06.751Z,0
2017-09-09T04:14:09.150Z,0
2017-09-09T04:15:11.552Z,0
2017-09-09T04:16:13.939Z,0
2017-09-09T04:17:16.344Z,0
2017-09-09T04:18:18.738Z,0
2017-09-09T04:19:21.128Z,0
2017-09-09T04:20:23.524Z,0
2017-09-09T04:21:26.270Z,0
2017-09-09T04:22:28.668Z,0
2017-09-09T04:23:31.069Z,0
2017-09-09T04:24:33.452Z,0
2017-09-09T04:25:35.852Z,0
2017-09-09T04:26:38.252Z,0
2017-09-09T04:27:40.660Z,0
2017-09-09T04:28:43.391Z,0
2017-09-09T04:29:45.792Z,0
2017-09-09T04:30:48.550Z,0
2017-09-09T04:31:50.952Z,0
2017-09-09T04:32:53.345Z,0
2017-09-09T04:33:55.762Z,0
2017-09-09T04:34:58.151Z,1
2017-09-09T04:36:00.544Z,1
2017-09-09T04:37:02.944Z,1
2017-09-09T04:38:05.351Z,1
2017-09-09T04:39:07.752Z,1
2017-09-09T04:40:10.152Z,1
2017-09-09T04:41:12.540Z,1
2017-09-09T04:42:14.942Z,2
2017-09-09T04:43:17.337Z,2
2017-09-09T04:44:19.736Z,2
2017-09-09T04:45:22.126Z,2
2017-09-09T04:46:24.522Z,2
2017-09-09T04:47:26.920Z,2
2017-09-09T04:48:29.319Z,2
2017-09-09T04:49:31.711Z,2
2017-09-09T04:50:34.098Z,2
2017-09-09T04:51:36.496Z,2
2017-09-09T04:52:38.896Z,2
2017-09-09T04:53:41.288Z,2
2017-09-09T04:54:43.688Z,3
2017-09-09T04:55:46.076Z,3
2017-09-09T04:56:48.476Z,3
2017-09-09T04:57:50.875Z,3
2017-09-09T04:58:53.275Z,3
2017-09-09T04:59:56.004Z,4
2017-09-09T05:00:58.392Z,4
2017-09-09T05:02:00.784Z,4
2017-09-09T05:03:03.186Z,4
2017-09-09T05:04:05.586Z,4
2017-09-09T05:05:08.336Z,5
2017-09-09T05:06:10.734Z,5
2017-09-09T05:07:13.115Z,5
2017-09-09T05:08:15.527Z,5
2017-09-09T05:09:17.921Z,5
2017-09-09T05:10:20.319Z,5
2017-09-09T05:11:22.717Z,5
2017-09-09T05:12:25.456Z,5
2017-09-09T05:13:27.850Z,5
2017-09-09T05:14:30.251Z,5
2017-09-09T05:15:32.639Z,5
2017-09-09T05:16:35.033Z,6
2017-09-09T05:17:37.427Z,6
2017-09-09T05:18:39.822Z,6
2017-09-09T05:19:42.216Z,7
2017-09-09T05:20:44.607Z,8
2017-09-09T05:21:47.004Z,9
2017-09-09T05:22:49.404Z,11
2017-09-09T05:23:51.798Z,12
2017-09-09T05:24:54.199Z,12
2017-09-09T05:25:56.591Z,12
2017-09-09T05:26:58.993Z,13
2017-09-09T05:28:01.387Z,13
2017-09-09T05:29:03.798Z,13
2017-09-09T05:30:06.175Z,12
2017-09-09T05:31:08.573Z,12
2017-09-09T05:32:10.969Z,12
2017-09-09T05:33:13.377Z,13
2017-09-09T05:34:15.772Z,13
2017-09-09T05:35:18.165Z,13
2017-09-09T05:36:20.559Z,13
2017-09-09T05:37:22.958Z,12
2017-09-09T05:38:25.359Z,12
2017-09-09T05:39:27.749Z,12
2017-09-09T05:40:30.479Z,12
2017-09-09T05:41:33.218Z,12
2017-09-09T05:42:35.622Z,12
2017-09-09T05:43:38.018Z,13
2017-09-09T05:44:40.413Z,13
2017-09-09T05:45:42.808Z,14
2017-09-09T05:46:45.199Z,14
2017-09-09T05:47:47.602Z,14
2017-09-09T05:48:49.993Z,15
2017-09-09T05:49:52.391Z,16
2017-09-09T05:50:54.785Z,16
2017-09-09T05:51:57.183Z,17
2017-09-09T05:52:59.584Z,17
2017-09-09T05:54:01.979Z,18
2017-09-09T05:55:04.362Z,19
2017-09-09T05:56:06.758Z,20
2017-09-09T05:57:09.161Z,21
2017-09-09T05:58:11.892Z,22
2017-09-09T05:59:14.292Z,23
2017-09-09T06:00:16.686Z,24
2017-09-09T06:01:19.084Z,25
2017-09-09T06:02:21.477Z,26
2017-09-09T06:03:23.874Z,27
2017-09-09T06:04:26.267Z,27
2017-09-09T06:05:28.654Z,27
2017-09-09T06:06:31.055Z,26
2017-09-09T06:07:33.445Z,25
2017-09-09T06:08:36.180Z,23
2017-09-09T06:09:38.580Z,22
2017-09-09T06:10:40.974Z,22
2017-09-09T06:11:43.364Z,21
2017-09-09T06:12:45.764Z,21
2017-09-09T06:13:48.145Z,22
2017-09-09T06:14:50.550Z,23
2017-09-09T06:15:52.951Z,23
2017-09-09T06:16:55.342Z,22
2017-09-09T06:17:57.740Z,21
2017-09-09T06:19:00.137Z,19
2017-09-09T06:20:02.534Z,19
2017-09-09T06:21:04.942Z,19
2017-09-09T06:22:07.670Z,19
2017-09-09T06:23:10.067Z,19
2017-09-09T06:24:12.462Z,19
2017-09-09T06:25:14.883Z,20
2017-09-09T06:26:17.245Z,22
2017-09-09T06:27:19.649Z,21
2017-09-09T06:28:22.045Z,21
2017-09-09T06:29:24.441Z,21
2017-09-09T06:30:26.841Z,23
2017-09-09T06:31:29.236Z,23
2017-09-09T06:32:31.630Z,23
2017-09-09T06:33:34.024Z,23
2017-09-09T06:34:36.760Z,23
2017-09-09T06:35:39.157Z,23
2017-09-09T06:36:41.556Z,24
2017-09-09T06:37:43.951Z,25
2017-09-09T06:38:46.342Z,26
2017-09-09T06:39:48.751Z,26
2017-09-09T06:40:51.149Z,27
2017-09-09T06:41:53.547Z,26
2017-09-09T06:42:55.938Z,24
2017-09-09T06:43:58.329Z,22
2017-09-09T06:45:00.752Z,22
2017-09-09T06:46:03.143Z,23
2017-09-09T06:47:05.530Z,27
2017-09-09T06:48:07.932Z,29
2017-09-09T06:49:10.320Z,29
2017-09-09T06:50:12.719Z,29
2017-09-09T06:51:15.118Z,29
2017-09-09T06:52:17.506Z,27
2017-09-09T06:53:19.903Z,27
2017-09-09T06:54:22.306Z,31
2017-09-09T06:55:24.701Z,33
2017-09-09T06:56:27.095Z,35
2017-09-09T06:57:29.493Z,35
2017-09-09T06:58:31.888Z,34
2017-09-09T06:59:34.280Z,33
2017-09-09T07:00:36.679Z,33
2017-09-09T07:01:39.073Z,34
2017-09-09T07:02:41.470Z,33
2017-09-09T07:03:43.866Z,31
2017-09-09T07:04:46.262Z,28
2017-09-09T07:05:49.005Z,27
2017-09-09T07:06:51.401Z,29
2017-09-09T07:07:53.801Z,35
2017-09-09T07:08:56.201Z,36
2017-09-09T07:09:58.591Z,38
2017-09-09T07:11:00.990Z,39
2017-09-09T07:12:03.741Z,41
2017-09-09T07:13:06.124Z,39
2017-09-09T07:14:08.526Z,37
2017-09-09T07:15:10.922Z,36
2017-09-09T07:16:13.663Z,38
2017-09-09T07:17:16.404Z,40
2017-09-09T07:18:18.789Z,38
2017-09-09T07:19:21.192Z,39
2017-09-09T07:20:23.596Z,41
2017-09-09T07:21:25.989Z,44
2017-09-09T07:22:28.392Z,47
2017-09-09T07:23:30.791Z,48
2017-09-09T07:24:33.179Z,48
2017-09-09T07:25:35.582Z,44
2017-09-09T07:26:37.981Z,45
2017-09-09T07:27:40.362Z,50
2017-09-09T07:28:42.759Z,51
2017-09-09T07:29:45.500Z,46
2017-09-09T07:30:47.887Z,43
2017-09-09T07:31:50.283Z,45
2017-09-09T07:32:52.686Z,44
2017-09-09T07:33:55.079Z,43
2017-09-09T07:34:57.477Z,44
2017-09-09T07:35:59.882Z,44
2017-09-09T07:37:02.274Z,46
2017-09-09T07:38:04.684Z,40
2017-09-09T07:39:07.084Z,29
2017-09-09T07:40:09.479Z,28
2017-09-09T07:41:11.876Z,24
2017-09-09T07:42:14.267Z,29
2017-09-09T07:43:16.657Z,31
2017-09-09T07:44:19.068Z,36
2017-09-09T07:45:21.456Z,36
2017-09-09T07:46:24.003Z,33
2017-09-09T07:47:26.396Z,29
2017-09-09T07:48:28.797Z,29
2017-09-09T07:49:31.531Z,25
2017-09-09T07:50:33.934Z,25
2017-09-09T07:51:36.331Z,32
2017-09-09T07:52:38.729Z,32
2017-09-09T07:53:41.129Z,33
2017-09-09T07:54:43.523Z,31
2017-09-09T07:55:46.254Z,30
2017-09-09T07:56:48.650Z,19
2017-09-09T07:57:51.046Z,16
2017-09-09T07:58:53.448Z,19
2017-09-09T07:59:55.841Z,19
2017-09-09T08:00:58.229Z,28
2017-09-09T08:02:00.629Z,33
2017-09-09T08:03:03.033Z,34
2017-09-09T08:04:05.429Z,33
2017-09-09T08:05:07.820Z,40
2017-09-09T08:06:10.215Z,37
2017-09-09T08:07:12.609Z,38
2017-09-09T08:08:15.009Z,37
2017-09-09T08:09:17.404Z,34
2017-09-09T08:10:19.796Z,31
2017-09-09T08:11:22.534Z,31
2017-09-09T08:12:24.935Z,26
2017-09-09T08:13:27.326Z,26
2017-09-09T08:14:30.059Z,25
2017-09-09T08:15:32.454Z,23
2017-09-09T08:16:34.851Z,30
2017-09-09T08:17:37.252Z,34
2017-09-09T08:18:39.652Z,39
2017-09-09T08:19:42.042Z,38
2017-09-09T08:20:44.439Z,39
2017-09-09T08:21:46.834Z,39
2017-09-09T08:22:49.226Z,34
2017-09-09T08:23:51.628Z,31
2017-09-09T08:24:54.026Z,29
2017-09-09T08:25:56.416Z,23
2017-09-09T08:26:58.825Z,24
2017-09-09T08:28:02.253Z,31
2017-09-09T08:29:04.656Z,42
2017-09-09T08:30:07.387Z,42
2017-09-09T08:31:09.787Z,34
2017-09-09T08:32:12.181Z,37
2017-09-09T08:33:14.581Z,36
2017-09-09T08:34:16.984Z,34
2017-09-09T08:35:19.381Z,29
2017-09-09T08:36:22.117Z,24
2017-09-09T08:37:24.853Z,19
2017-09-09T08:38:27.242Z,18
2017-09-09T08:39:29.639Z,16
2017-09-09T08:40:32.032Z,17
2017-09-09T08:41:34.430Z,18
2017-09-09T08:42:36.829Z,17
2017-09-09T08:43:39.892Z,20
2017-09-09T08:44:42.287Z,23
2017-09-09T08:45:44.691Z,25
2017-09-09T08:46:47.089Z,26
2017-09-09T08:47:49.489Z,28
2017-09-09T08:48:51.886Z,33
2017-09-09T08:49:54.279Z,32
2017-09-09T08:50:56.678Z,28
2017-09-09T08:51:59.073Z,27
2017-09-09T08:53:01.457Z,28
2017-09-09T08:54:03.859Z,27
2017-09-09T08:55:06.258Z,27
2017-09-09T08:56:08.655Z,26
2017-09-09T08:57:11.053Z,37
2017-09-09T08:58:13.454Z,32
2017-09-09T08:59:15.847Z,30
2017-09-09T09:00:18.233Z,30
2017-09-09T09:01:20.634Z,31
2017-09-09T09:02:23.026Z,31
2017-09-09T09:03:25.778Z,27
2017-09-09T09:04:28.247Z,25
2017-09-09T09:05:30.685Z,31
2017-09-09T09:06:33.383Z,27
2017-09-09T09:07:35.787Z,24
2017-09-09T09:08:38.177Z,30
2017-09-09T09:09:40.574Z,32
2017-09-09T09:10:42.970Z,30
2017-09-09T09:11:45.706Z,30
2017-09-09T09:12:48.105Z,37
2017-09-09T09:13:50.501Z,36
2017-09-09T09:14:52.913Z,43
2017-09-09T09:15:55.332Z,40
2017-09-09T09:16:57.733Z,45
2017-09-09T09:18:00.129Z,50
2017-09-09T09:19:02.860Z,43
2017-09-09T09:20:05.255Z,41
2017-09-09T09:21:07.650Z,45
2017-09-09T09:22:10.051Z,44
2017-09-09T09:23:12.471Z,39
2017-09-09T09:24:14.870Z,42
2017-09-09T09:25:17.273Z,38
2017-09-09T09:26:19.683Z,36
2017-09-09T09:27:22.073Z,36
2017-09-09T09:28:24.495Z,36
2017-09-09T09:29:26.865Z,35
2017-09-09T09:30:29.266Z,41
2017-09-09T09:31:32.545Z,39
2017-09-09T09:32:34.972Z,31
2017-09-09T09:33:37.927Z,29
2017-09-09T09:34:41.479Z,30
2017-09-09T09:35:43.867Z,33
2017-09-09T09:36:46.260Z,36
2017-09-09T09:37:49.432Z,40
2017-09-09T09:38:52.804Z,37
2017-09-09T09:39:56.124Z,35
2017-09-09T09:40:59.315Z,32
2017-09-09T09:42:01.719Z,34
2017-09-09T09:43:05.110Z,36
2017-09-09T09:44:08.645Z,35
2017-09-09T09:45:11.378Z,39
2017-09-09T09:46:13.767Z,38
2017-09-09T09:47:16.162Z,42
2017-09-09T09:48:18.895Z,44
2017-09-09T09:49:21.626Z,32
2017-09-09T09:50:24.034Z,29
2017-09-09T09:51:26.425Z,37
2017-09-09T09:52:28.815Z,42
2017-09-09T09:53:31.214Z,37
2017-09-09T09:54:33.610Z,39
2017-09-09T09:55:36.011Z,44
2017-09-09T09:56:38.739Z,37
2017-09-09T09:57:41.127Z,36
2017-09-09T09:58:43.526Z,41
2017-09-09T09:59:45.922Z,39
2017-09-09T10:00:48.357Z,44
2017-09-09T10:01:50.715Z,42
2017-09-09T10:02:53.106Z,39
2017-09-09T10:03:55.500Z,30
2017-09-09T10:04:57.911Z,34
2017-09-09T10:06:00.305Z,37
2017-09-09T10:07:02.688Z,39
2017-09-09T10:08:05.088Z,43
2017-09-09T10:09:07.477Z,44
2017-09-09T10:10:09.881Z,44
2017-09-09T10:11:12.278Z,35
2017-09-09T10:12:15.017Z,37
2017-09-09T10:13:17.409Z,39
2017-09-09T10:14:19.807Z,27
2017-09-09T10:15:22.199Z,42
2017-09-09T10:16:24.593Z,54
2017-09-09T10:17:26.991Z,42
2017-09-09T10:18:29.388Z,40
2017-09-09T10:19:31.788Z,54
2017-09-09T10:20:34.182Z,53
2017-09-09T10:21:36.579Z,47
2017-09-09T10:22:38.971Z,40
2017-09-09T10:23:41.369Z,56
2017-09-09T10:24:43.758Z,51
2017-09-09T10:25:46.157Z,43
2017-09-09T10:26:48.549Z,39
2017-09-09T10:27:51.285Z,40
2017-09-09T10:28:53.672Z,43
2017-09-09T10:29:56.073Z,40
2017-09-09T10:30:58.461Z,41
2017-09-09T10:32:00.851Z,37
2017-09-09T10:33:03.245Z,36
2017-09-09T10:34:05.643Z,45
2017-09-09T10:35:08.039Z,60
2017-09-09T10:36:10.436Z,47
2017-09-09T10:37:12.829Z,42
2017-09-09T10:38:15.221Z,41
2017-09-09T10:39:17.621Z,43
2017-09-09T10:40:20.025Z,37
2017-09-09T10:41:22.417Z,45
2017-09-09T10:42:24.824Z,49
2017-09-09T10:43:27.215Z,49
2017-09-09T10:44:29.608Z,54
2017-09-09T10:45:32.004Z,49
2017-09-09T10:46:34.503Z,59
2017-09-09T10:47:36.898Z,79
2017-09-09T10:48:39.636Z,64
2017-09-09T10:49:42.024Z,65
2017-09-09T10:50:44.423Z,78
2017-09-09T10:51:46.821Z,108
2017-09-09T10:52:49.211Z,124
2017-09-09T10:53:51.606Z,156
2017-09-09T10:54:54.000Z,147
2017-09-09T10:55:56.396Z,121
2017-09-09T10:56:58.783Z,90
2017-09-09T10:58:01.179Z,82
2017-09-09T10:59:03.614Z,69
2017-09-09T11:00:05.977Z,78
2017-09-09T11:01:08.367Z,88
2017-09-09T11:02:10.773Z,100
2017-09-09T11:03:13.162Z,97
2017-09-09T11:04:15.573Z,101
2017-09-09T11:05:17.960Z,92
2017-09-09T11:06:20.354Z,76
2017-09-09T11:07:22.751Z,81
2017-09-09T11:08:25.483Z,78
2017-09-09T11:09:27.879Z,104
2017-09-09T11:10:30.277Z,122
2017-09-09T11:11:32.673Z,82
2017-09-09T11:12:35.070Z,91
2017-09-09T11:13:37.469Z,77
2017-09-09T11:14:40.225Z,74
2017-09-09T11:15:42.612Z,68
2017-09-09T11:16:45.011Z,79
2017-09-09T11:17:47.412Z,101
2017-09-09T11:18:49.806Z,89
2017-09-09T11:19:52.201Z,70
2017-09-09T11:20:54.593Z,58
2017-09-09T11:21:56.985Z,53
2017-09-09T11:22:59.390Z,65
2017-09-09T11:24:01.779Z,70
2017-09-09T11:25:04.173Z,55
2017-09-09T11:26:06.566Z,43
2017-09-09T11:27:08.965Z,49
2017-09-09T11:28:11.358Z,69
2017-09-09T11:29:13.744Z,82
2017-09-09T11:30:16.150Z,55
2017-09-09T11:31:18.544Z,47
2017-09-09T11:32:20.937Z,57
2017-09-09T11:33:23.671Z,89
2017-09-09T11:34:26.068Z,139
2017-09-09T11:35:28.805Z,112
2017-09-09T11:36:31.203Z,114
2017-09-09T11:37:33.586Z,87
2017-09-09T11:38:35.987Z,91
2017-09-09T11:39:38.387Z,77
2017-09-09T11:40:40.783Z,92
2017-09-09T11:41:43.179Z,92
2017-09-09T11:42:45.581Z,77
2017-09-09T11:43:47.967Z,61
2017-09-09T11:44:50.363Z,41
2017-09-09T11:45:52.760Z,40
2017-09-09T11:46:55.146Z,42
2017-09-09T11:47:57.549Z,45
2017-09-09T11:48:59.947Z,54
2017-09-09T11:50:02.334Z,41
2017-09-09T11:51:04.733Z,58
2017-09-09T11:52:07.131Z,78
2017-09-09T11:53:09.524Z,93
2017-09-09T11:54:11.928Z,110
2017-09-09T11:55:15.023Z,138
2017-09-09T11:56:17.423Z,190
2017-09-09T11:57:19.826Z,186
2017-09-09T11:58:22.557Z,168
2017-09-09T11:59:24.952Z,158
2017-09-09T12:00:27.345Z,192
2017-09-09T12:01:29.759Z,161
2017-09-09T12:02:32.132Z,182
2017-09-09T12:03:34.542Z,255
2017-09-09T12:04:36.930Z,340
2017-09-09T12:05:39.322Z,246
2017-09-09T12:06:41.726Z,332
2017-09-09T12:07:44.123Z,326
2017-09-09T12:08:46.525Z,173
2017-09-09T12:09:48.926Z,186
2017-09-09T12:10:51.309Z,145
2017-09-09T12:11:53.711Z,139
2017-09-09T12:12:56.109Z,164
2017-09-09T12:13:58.507Z,182
2017-09-09T12:15:01.243Z,148
2017-09-09T12:16:03.639Z,228
2017-09-09T12:17:06.033Z,197
2017-09-09T12:18:08.437Z,134
2017-09-09T12:19:10.841Z,94
2017-09-09T12:20:13.577Z,93
2017-09-09T12:21:15.972Z,94
2017-09-09T12:22:18.374Z,180
2017-09-09T12:23:20.772Z,111
2017-09-09T12:24:23.167Z,104
2017-09-09T12:25:25.570Z,106
2017-09-09T12:26:27.971Z,109
2017-09-09T12:27:30.365Z,82
2017-09-09T12:28:32.765Z,72
2017-09-09T12:29:35.175Z,115
2017-09-09T12:30:37.571Z,97
2017-09-09T12:31:39.965Z,99
2017-09-09T12:32:42.369Z,192
2017-09-09T12:33:44.768Z,426
2017-09-09T12:34:47.163Z,130
2017-09-09T12:35:49.906Z,125
2017-09-09T12:36:52.291Z,134
2017-09-09T12:37:54.697Z,134
2017-09-09T12:38:57.105Z,147
2017-09-09T12:39:59.498Z,140
2017-09-09T12:41:01.900Z,179
2017-09-09T12:42:04.300Z,182
2017-09-09T12:43:06.701Z,149
2017-09-09T12:44:09.113Z,170
2017-09-09T12:45:11.505Z,622
2017-09-09T12:46:13.900Z,184
2017-09-09T12:47:16.303Z,520
2017-09-09T12:48:18.705Z,194
2017-09-09T12:49:21.110Z,569
2017-09-09T12:50:23.509Z,528
2017-09-09T12:51:25.903Z,328
2017-09-09T12:52:28.303Z,260
2017-09-09T12:53:30.715Z,174
2017-09-09T12:54:33.124Z,179
2017-09-09T12:55:35.517Z,243
2017-09-09T12:56:37.921Z,129
2017-09-09T12:57:40.323Z,84
2017-09-09T12:58:42.722Z,69
2017-09-09T12:59:45.122Z,61
2017-09-09T13:00:47.529Z,50
2017-09-09T13:01:49.929Z,51
2017-09-09T13:02:52.682Z,45
2017-09-09T13:03:55.080Z,44
2017-09-09T13:04:57.817Z,49
2017-09-09T13:06:00.212Z,57
2017-09-09T13:07:02.618Z,72
2017-09-09T13:08:05.030Z,104
2017-09-09T13:09:07.771Z,175
2017-09-09T13:10:10.167Z,495
2017-09-09T13:11:12.598Z,423
2017-09-09T13:12:14.996Z,438
2017-09-09T13:13:17.735Z,476
2017-09-09T13:14:20.134Z,144
2017-09-09T13:15:22.535Z,211
2017-09-09T13:16:24.932Z,498
2017-09-09T13:17:27.345Z,289
2017-09-09T13:18:29.743Z,586
2017-09-09T13:19:32.145Z,294
2017-09-09T13:20:34.547Z,134
2017-09-09T13:21:36.953Z,145
2017-09-09T13:22:39.362Z,151
2017-09-09T13:23:41.760Z,174
2017-09-09T13:24:44.161Z,169
2017-09-09T13:25:46.565Z,148
2017-09-09T13:26:48.965Z,148
2017-09-09T13:27:51.372Z,139
2017-09-09T13:28:53.772Z,112
2017-09-09T13:29:56.189Z,97
2017-09-09T13:30:58.591Z,79
2017-09-09T13:32:00.998Z,54
2017-09-09T13:33:03.396Z,48
2017-09-09T13:34:05.804Z,57
2017-09-09T13:35:08.541Z,81
2017-09-09T13:36:10.945Z,96
2017-09-09T13:37:13.341Z,107
2017-09-09T13:38:15.745Z,101
2017-09-09T13:39:18.153Z,95
2017-09-09T13:40:20.556Z,86
2017-09-09T13:41:22.944Z,91
2017-09-09T13:42:25.355Z,90
2017-09-09T13:43:27.756Z,80
2017-09-09T13:44:30.161Z,74
2017-09-09T13:45:32.572Z,110
2017-09-09T13:46:34.982Z,125
2017-09-09T13:47:37.430Z,130
2017-09-09T13:48:40.181Z,179
2017-09-09T13:49:42.579Z,322
2017-09-09T13:50:44.988Z,349
2017-09-09T13:51:47.391Z,279
2017-09-09T13:52:49.792Z,264
2017-09-09T13:53:52.184Z,282
2017-09-09T13:54:54.866Z,227
2017-09-09T13:55:57.278Z,247
2017-09-09T13:56:59.677Z,245
2017-09-09T13:58:02.085Z,329
2017-09-09T13:59:04.494Z,107
2017-09-09T14:00:06.890Z,215
2017-09-09T14:01:09.315Z,328
2017-09-09T14:02:11.726Z,370
2017-09-09T14:03:14.129Z,288
2017-09-09T14:04:16.540Z,285
2017-09-09T14:05:18.941Z,336
2017-09-09T14:06:21.702Z,172
2017-09-09T14:07:24.113Z,232
2017-09-09T14:08:26.515Z,127
2017-09-09T14:09:28.922Z,317
2017-09-09T14:10:31.344Z,256
2017-09-09T14:11:33.737Z,151
2017-09-09T14:12:36.143Z,125
2017-09-09T14:13:38.550Z,106
2017-09-09T14:14:40.948Z,109
2017-09-09T14:15:43.360Z,113
2017-09-09T14:16:46.105Z,100
2017-09-09T14:17:48.502Z,98
2017-09-09T14:18:50.904Z,87
2017-09-09T14:19:53.309Z,89
2017-09-09T14:20:55.709Z,88
2017-09-09T14:21:58.120Z,80
2017-09-09T14:23:00.514Z,77
2017-09-09T14:24:02.914Z,80
2017-09-09T14:25:05.320Z,56
2017-09-09T14:26:07.724Z,59
2017-09-09T14:27:10.124Z,78
2017-09-09T14:28:12.530Z,83
2017-09-09T14:29:14.928Z,81
2017-09-09T14:30:17.334Z,57
2017-09-09T14:31:19.748Z,42
2017-09-09T14:32:22.152Z,47
2017-09-09T14:33:25.238Z,60
2017-09-09T14:34:27.637Z,59
2017-09-09T14:35:30.049Z,69
2017-09-09T14:36:32.454Z,49
2017-09-09T14:37:34.856Z,29
2017-09-09T14:38:37.251Z,27
2017-09-09T14:39:39.658Z,28
2017-09-09T14:40:42.052Z,28
2017-09-09T14:41:44.452Z,30
2017-09-09T14:42:46.853Z,39
2017-09-09T14:43:49.253Z,54
2017-09-09T14:44:51.660Z,74
2017-09-09T14:45:54.064Z,91
2017-09-09T14:46:56.469Z,103
2017-09-09T14:47:58.860Z,86
2017-09-09T14:49:01.264Z,80
2017-09-09T14:50:03.675Z,75
2017-09-09T14:51:06.075Z,68
2017-09-09T14:52:08.481Z,62
2017-09-09T14:53:10.880Z,63
2017-09-09T14:54:13.621Z,65
2017-09-09T14:55:16.024Z,65
2017-09-09T14:56:18.421Z,59
2017-09-09T14:57:20.820Z,57